Time;durP1;ratioP1;P1;durP2;ratioP2;P2;SDS_P1;SDS_P2;PMS_P1;PMS_P2;Temp;Humidity;BMP_temperature;BMP_pressure;BME280_temperature;BME280_humidity;BME280_pressure;Samples;Min_cycle;Max_cycle;Signal;HPM_P1;HPM_P2
2024/02/05 00:00:37;;;;;;;2.65;1.38;;;;;;;8.89;71.35;99632.66;4971959;28;96736;-80
2024/02/05 00:03:03;;;;;;;3.53;1.75;;;;;;;8.82;71.81;99633.81;4968738;28;96915;-80
2024/02/05 00:05:29;;;;;;;2.55;1.30;;;;;;;8.84;72.20;99640.72;4942888;28;100237;-80
2024/02/05 00:07:54;;;;;;;2.10;1.27;;;;;;;8.85;71.34;99620.63;4985516;28;101636;-80
2024/02/05 00:10:20;;;;;;;4.25;1.50;;;;;;;8.82;71.48;99591.94;4985702;28;96693;-80
2024/02/05 00:12:45;;;;;;;2.95;1.50;;;;;;;8.92;72.11;99610.75;4986919;28;97248;-80
2024/02/05 00:15:11;;;;;;;1.90;1.30;;;;;;;8.94;71.58;99612.41;4964798;28;101473;-79
2024/02/05 00:17:36;;;;;;;7.43;1.92;;;;;;;8.83;71.77;99614.59;4963503;28;101283;-80
2024/02/05 00:20:03;;;;;;;3.03;1.42;;;;;;;8.76;72.16;99586.94;4982460;28;96729;-77
2024/02/05 00:22:29;;;;;;;3.30;1.50;;;;;;;8.92;71.68;99601.13;4978415;28;97032;-77
2024/02/05 00:24:54;;;;;;;3.15;1.17;;;;;;;8.87;71.88;99597.00;4998464;28;97383;-82
2024/02/05 00:27:20;;;;;;;2.17;1.45;;;;;;;8.90;71.78;99589.91;4972855;28;97552;-80
2024/02/05 00:29:45;;;;;;;2.63;1.17;;;;;;;8.95;72.29;99584.47;4992186;28;96668;-80
2024/02/05 00:32:11;;;;;;;3.35;1.55;;;;;;;8.86;72.43;99571.75;4973358;28;96907;-80
2024/02/05 00:34:37;;;;;;;3.83;2.55;;;;;;;8.66;72.20;99514.94;4990434;28;97550;-79
2024/02/05 00:37:03;;;;;;;3.25;1.80;;;;;;;9.08;71.87;99564.75;4987441;28;97543;-80
2024/02/05 00:39:28;;;;;;;3.92;1.75;;;;;;;9.21;71.61;99562.50;4966470;28;96937;-82
2024/02/05 00:41:54;;;;;;;7.55;1.58;;;;;;;9.16;71.50;99554.84;4967593;28;96798;-81
2024/02/05 00:44:19;;;;;;;3.40;1.35;;;;;;;9.22;71.70;99553.69;4990538;28;101065;-81
2024/02/05 00:46:45;;;;;;;1.75;1.20;;;;;;;9.22;71.47;99535.38;4967932;28;100917;-80
2024/02/05 00:49:10;;;;;;;3.17;1.83;;;;;;;9.28;71.24;99543.84;4983975;28;96780;-80
2024/02/05 00:51:36;;;;;;;1.80;1.15;;;;;;;9.23;71.92;99548.41;4987766;28;97061;-80
2024/02/05 00:54:02;;;;;;;3.97;1.42;;;;;;;8.97;72.23;99522.44;4976952;28;101520;-80
2024/02/05 00:56:28;;;;;;;1.45;0.98;;;;;;;9.17;71.82;99532.13;4957420;28;101044;-80
2024/02/05 00:58:54;;;;;;;2.22;0.90;;;;;;;9.26;71.34;99540.44;4960290;28;96776;-80
2024/02/05 01:01:19;;;;;;;4.18;1.17;;;;;;;9.27;71.83;99529.03;4978428;28;97913;-81
2024/02/05 01:03:45;;;;;;;2.22;1.08;;;;;;;9.46;70.94;99526.50;4970150;28;101320;-80
2024/02/05 01:06:10;;;;;;;2.75;1.20;;;;;;;9.47;71.04;99519.50;4971256;28;101353;-80
2024/02/05 01:08:36;;;;;;;2.40;1.38;;;;;;;9.56;71.10;99505.16;4950137;28;96832;-80
2024/02/05 01:11:02;;;;;;;3.65;1.48;;;;;;;9.59;70.79;99494.56;4988930;28;97030;-79
2024/02/05 01:13:27;;;;;;;2.97;1.50;;;;;;;9.64;70.71;99484.72;4959053;28;101192;-79
2024/02/05 01:15:53;;;;;;;2.50;1.00;;;;;;;9.62;70.73;99483.94;4974302;28;101147;-79
2024/02/05 01:18:18;;;;;;;2.42;1.17;;;;;;;9.57;71.12;99480.66;4950441;28;96818;-80
2024/02/05 01:20:44;;;;;;;2.17;1.10;;;;;;;9.42;70.63;99445.50;4988352;28;96747;-82
2024/02/05 01:23:10;;;;;;;4.45;1.63;;;;;;;9.53;70.94;99467.69;4960501;28;101314;-80
2024/02/05 01:25:35;;;;;;;2.40;1.52;;;;;;;9.33;70.94;99446.72;4987433;28;97230;-77
2024/02/05 01:28:01;;;;;;;2.67;1.33;;;;;;;9.28;70.61;99428.63;4979693;28;96675;-78
2024/02/05 01:30:28;;;;;;;2.85;1.67;;;;;;;9.08;71.14;99441.69;4979660;28;96597;-77
2024/02/05 01:32:53;;;;;;;3.67;1.45;;;;;;;8.86;72.65;99469.66;4962219;28;101644;-78
2024/02/05 01:35:19;;;;;;;3.13;2.05;;;;;;;9.02;72.49;99457.66;4946049;28;101255;-78
2024/02/05 01:45:04;;;;;;;2.67;1.58;;;;;;;9.18;71.01;99435.16;4975976;28;96981;-77
2024/02/05 01:51:23;;;;;;;3.10;1.40;;;;;;;9.25;71.49;99428.75;4976085;28;96551;-78
2024/02/05 02:10:22;;;;;;;3.75;1.75;;;;;;;9.14;73.21;99368.13;5002951;28;96635;-77
2024/02/05 02:33:44;;;;;;;4.97;0.90;;;;;;;9.42;76.36;99335.47;4998627;28;96960;-77
2024/02/05 02:48:15;;;;;;;4.25;1.20;;;;;;;9.61;78.88;99315.38;4998037;28;96935;-77
2024/02/05 03:03:01;;;;;;;2.65;1.20;;;;;;;9.73;81.31;99316.59;4997596;28;96935;-77
2024/02/05 03:09:15;;;;;;;4.88;1.40;;;;;;;9.79;81.13;99295.34;4998820;28;96526;-77
2024/02/05 03:34:27;;;;;;;2.67;1.13;;;;;;;10.04;81.63;99308.16;4996507;28;96644;-77
2024/02/05 03:48:36;;;;;;;3.78;1.58;;;;;;;9.97;82.28;99283.97;4995589;28;96527;-77
2024/02/05 03:58:49;;;;;;;2.72;0.85;;;;;;;10.04;82.22;99283.69;4995883;28;96875;-79
2024/02/05 04:09:03;;;;;;;2.67;1.40;;;;;;;10.12;81.97;99297.25;4988876;28;97044;-77
2024/02/05 04:40:35;;;;;;;1.50;0.88;;;;;;;10.24;80.98;99277.47;4998479;28;97072;-77
2024/02/05 04:47:25;;;;;;;1.65;1.30;;;;;;;10.25;81.18;99287.06;4999073;28;96551;-77
2024/02/05 04:53:58;;;;;;;2.00;1.00;;;;;;;10.34;80.34;99294.50;4996762;28;96999;-77
2024/02/05 05:20:06;;;;;;;2.22;0.93;;;;;;;10.42;81.15;99292.34;4998541;28;96532;-77
2024/02/05 05:27:26;;;;;;;0.73;0.60;;;;;;;10.38;81.19;99285.53;4997589;28;96893;-77
2024/02/05 05:46:43;;;;;;;0.93;0.60;;;;;;;10.43;81.29;99301.91;4996141;28;96606;-78
2024/02/05 05:53:08;;;;;;;2.10;0.70;;;;;;;10.48;81.49;99309.56;4995315;28;97056;-77
2024/02/05 05:59:21;;;;;;;1.77;1.00;;;;;;;10.48;81.36;99322.69;4993077;28;96577;-73
2024/02/05 06:01:47;;;;;;;0.60;0.60;;;;;;;10.58;81.31;99319.50;4979115;28;96975;-77
2024/02/05 06:04:12;;;;;;;1.77;0.90;;;;;;;10.57;81.19;99328.31;4979217;28;101405;-77
2024/02/05 06:06:38;;;;;;;0.93;0.40;;;;;;;10.50;80.99;99326.94;4981310;28;97888;-74
2024/02/05 06:09:05;;;;;;;1.05;0.70;;;;;;;10.55;80.99;99327.53;4963027;28;96555;-77
2024/02/05 06:11:31;;;;;;;0.55;0.45;;;;;;;10.51;81.51;99341.75;4963765;28;96589;-77
2024/02/05 06:14:37;;;;;;;3.92;0.30;;;;;;;10.48;81.33;99343.66;4946918;28;101782;-77
2024/02/05 06:22:13;;;;;;;1.02;0.50;;;;;;;10.58;81.36;99352.78;4995215;28;96549;-77
2024/02/05 06:29:36;;;;;;;0.65;0.50;;;;;;;10.59;81.28;99360.59;4995394;28;96978;-77
2024/02/05 06:56:37;;;;;;;0.93;0.60;;;;;;;10.68;81.00;99419.66;4994840;28;96778;-77
2024/02/05 07:03:43;;;;;;;1.52;0.50;;;;;;;10.72;81.57;99429.06;4993203;28;96927;-77
2024/02/05 07:10:30;;;;;;;0.70;0.50;;;;;;;10.78;81.54;99428.75;4995861;28;96551;-77
2024/02/05 08:06:07;;;;;;;1.20;0.60;;;;;;;10.96;79.75;99473.41;4994479;28;96568;-77
2024/02/05 08:20:35;;;;;;;0.98;0.68;;;;;;;11.05;79.94;99475.59;4997629;28;96898;-77
2024/02/05 08:23:08;;;;;;;0.77;0.57;;;;;;;11.04;80.09;99460.75;4948807;28;96592;-77
2024/02/05 08:29:44;;;;;;;0.45;0.40;;;;;;;11.02;79.76;99491.50;4996191;28;97094;-77
2024/02/05 08:36:24;;;;;;;2.40;0.65;;;;;;;11.07;79.59;99477.22;4995562;28;96618;-78
2024/02/05 08:42:57;;;;;;;1.17;0.77;;;;;;;11.06;79.45;99483.41;4996751;28;97077;-78
2024/02/05 08:49:13;;;;;;;0.55;0.50;;;;;;;11.12;79.37;99484.03;4997829;28;96470;-78
2024/02/05 08:55:34;;;;;;;1.75;0.70;;;;;;;10.99;79.97;99487.25;5000852;28;97020;-78
2024/02/05 09:01:48;;;;;;;1.77;0.73;;;;;;;11.04;80.22;99498.38;4991079;28;96584;-74
2024/02/05 09:04:14;;;;;;;0.77;0.50;;;;;;;10.98;80.47;99493.44;4960008;28;96622;-74
2024/02/05 09:06:39;;;;;;;0.68;0.68;;;;;;;10.97;79.97;99494.38;4959233;28;100189;-75
2024/02/05 09:09:05;;;;;;;1.13;0.57;;;;;;;11.01;79.70;99495.91;4959094;28;101201;-73
2024/02/05 09:11:31;;;;;;;0.85;0.70;;;;;;;11.05;79.61;99515.84;4959410;28;96634;-73
2024/02/05 09:13:57;;;;;;;1.10;0.70;;;;;;;11.07;79.76;99508.72;4960446;28;96791;-74
2024/02/05 09:16:23;;;;;;;1.55;0.75;;;;;;;11.04;79.83;99506.25;4975872;28;97922;-74
2024/02/05 09:18:49;;;;;;;1.55;0.68;;;;;;;11.10;79.58;99500.69;4997020;28;97512;-74
2024/02/05 09:21:14;;;;;;;0.73;0.60;;;;;;;11.16;78.97;99503.97;4996869;28;96602;-73
2024/02/05 09:23:40;;;;;;;1.50;0.80;;;;;;;11.20;78.44;99495.00;4962825;28;96780;-73
2024/02/05 09:26:05;;;;;;;0.40;0.40;;;;;;;11.19;78.52;99495.94;4979118;28;97619;-73
2024/02/05 09:28:31;;;;;;;0.65;0.50;;;;;;;11.21;78.46;99518.56;4978155;28;97339;-75
2024/02/05 09:30:56;;;;;;;0.73;0.50;;;;;;;11.23;78.38;99508.00;4978986;28;96915;-73
2024/02/05 09:33:22;;;;;;;2.42;0.55;;;;;;;11.22;77.86;99509.75;5000817;28;96764;-78
2024/02/05 09:35:48;;;;;;;0.75;0.60;;;;;;;11.28;77.90;99522.56;4983844;28;97425;-78
2024/02/05 09:38:22;;;;;;;0.60;0.50;;;;;;;11.28;77.89;99508.59;4982489;28;100304;-78
2024/02/05 09:40:52;;;;;;;1.42;0.65;;;;;;;11.38;78.34;99509.84;4966265;28;96555;-78
2024/02/05 09:43:17;;;;;;;0.75;0.50;;;;;;;11.36;78.84;99508.22;4983088;28;96638;-78
2024/02/05 09:45:47;;;;;;;1.58;0.80;;;;;;;11.37;77.98;99508.13;4948639;28;100927;-79
2024/02/05 09:52:03;;;;;;;0.80;0.60;;;;;;;11.46;77.27;99518.22;4996319;28;96600;-78
2024/02/05 09:54:28;;;;;;;1.27;0.57;;;;;;;11.47;77.36;99513.81;4965389;28;96816;-79
2024/02/05 09:56:54;;;;;;;0.95;0.60;;;;;;;11.41;77.13;99514.13;4999098;28;97223;-78
2024/02/05 09:59:19;;;;;;;5.25;0.85;;;;;;;11.43;77.25;99506.97;4980913;28;98069;-78
2024/02/05 10:05:33;;;;;;;0.85;0.75;;;;;;;11.53;76.26;99514.31;4995934;28;96534;-78
2024/02/05 10:11:52;;;;;;;1.58;0.70;;;;;;;11.63;75.88;99504.19;4994802;28;96779;-78
2024/02/05 10:22:36;;;;;;;1.75;0.90;;;;;;;11.62;75.09;99499.88;4994748;28;97071;-78
2024/02/05 10:29:08;;;;;;;2.50;1.00;;;;;;;11.58;75.20;99493.09;4994281;28;96613;-78
2024/02/05 10:35:20;;;;;;;1.27;0.85;;;;;;;11.67;75.00;99500.50;4993121;28;96608;-80
2024/02/05 10:37:47;;;;;;;1.55;0.95;;;;;;;11.68;74.96;99493.44;4945386;28;100140;-78
2024/02/05 10:40:12;;;;;;;1.13;0.95;;;;;;;11.70;74.43;99488.97;4946267;28;97083;-79
2024/02/05 10:42:38;;;;;;;0.85;0.80;;;;;;;11.72;74.18;99493.22;4947295;28;96778;-78
2024/02/05 10:52:47;;;;;;;1.58;0.82;;;;;;;11.72;73.17;99503.75;4996969;28;96643;-77
2024/02/05 10:59:30;;;;;;;3.40;1.48;;;;;;;11.85;73.14;99503.97;4998061;28;97120;-77
2024/02/05 11:05:59;;;;;;;2.80;1.20;;;;;;;11.71;72.85;99485.41;4996347;28;96733;-77
2024/02/05 11:12:16;;;;;;;3.17;1.25;;;;;;;11.78;72.83;99499.94;4998393;28;97035;-77
2024/02/05 11:22:28;;;;;;;6.25;1.92;;;;;;;11.85;71.97;99495.22;4997971;28;96513;-77
2024/02/05 11:28:50;;;;;;;4.80;1.75;;;;;;;11.77;71.35;99501.69;4996961;28;96898;-78
2024/02/05 11:31:17;;;;;;;4.10;1.90;;;;;;;11.74;71.72;99498.38;4966325;28;96882;-77
2024/02/05 11:33:43;;;;;;;4.65;1.77;;;;;;;11.76;71.66;99509.69;4949253;28;97011;-77
2024/02/05 11:36:13;;;;;;;2.58;1.40;;;;;;;11.74;71.88;99499.22;4964626;28;97494;-79
2024/02/05 11:38:42;;;;;;;7.07;2.28;;;;;;;11.81;71.48;99509.44;4965871;28;98064;-78
2024/02/05 11:41:07;;;;;;;6.60;1.80;;;;;;;11.81;71.60;99510.31;4962137;28;96750;-77
2024/02/05 11:43:33;;;;;;;7.32;2.30;;;;;;;11.78;71.19;99503.41;4980651;28;96602;-78
2024/02/05 11:46:01;;;;;;;9.55;2.30;;;;;;;11.90;70.88;99509.84;4947201;28;101299;-77
2024/02/05 11:48:30;;;;;;;5.80;1.90;;;;;;;11.83;71.42;99491.81;4964118;28;100710;-77
2024/02/05 11:50:58;;;;;;;7.15;1.92;;;;;;;11.93;71.68;99493.91;4968460;28;96727;-77
2024/02/05 11:53:24;;;;;;;6.00;2.28;;;;;;;11.88;71.02;99490.66;4948839;28;96795;-77
2024/02/05 11:55:59;;;;;;;8.02;2.92;;;;;;;11.83;70.60;99486.53;4964145;28;97758;-78
2024/02/05 12:02:13;;;;;;;5.00;2.00;;;;;;;11.79;70.74;99496.38;4995871;28;96702;-77
2024/02/05 12:04:39;;;;;;;8.30;2.40;;;;;;;11.79;70.86;99501.63;4965357;28;96808;-77
2024/02/05 12:07:06;;;;;;;8.35;3.03;;;;;;;11.86;70.06;99463.59;4948636;28;100919;-77
2024/02/05 12:09:56;;;;;;;10.73;2.42;;;;;;;11.86;69.40;99491.66;4964473;28;100975;-77
2024/02/05 12:16:27;;;;;;;11.57;2.63;;;;;;;11.83;68.81;99497.06;4996429;28;96542;-77
2024/02/05 12:22:47;;;;;;;7.15;2.40;;;;;;;11.98;68.30;99497.16;4996692;28;96885;-78
2024/02/05 12:29:00;;;;;;;12.77;3.47;;;;;;;12.00;67.99;99497.06;4996451;28;96557;-77
2024/02/05 12:35:33;;;;;;;13.18;2.72;;;;;;;12.05;67.22;99484.50;4994014;28;96882;-77
2024/02/05 12:37:59;;;;;;;10.63;3.40;;;;;;;12.06;67.45;99490.63;4962176;28;96537;-76
2024/02/05 12:40:24;;;;;;;12.85;3.20;;;;;;;12.03;66.78;99506.56;4979639;28;96754;-77
2024/02/05 12:42:50;;;;;;;10.75;3.55;;;;;;;12.07;66.88;99514.22;4977889;28;100599;-77
2024/02/05 12:45:16;;;;;;;14.55;4.43;;;;;;;12.07;66.46;99503.72;4996936;28;98338;-77
2024/02/05 12:51:30;;;;;;;11.40;3.30;;;;;;;12.11;66.16;99510.50;4996228;28;96454;-77
2024/02/05 12:57:44;;;;;;;12.02;3.70;;;;;;;12.14;65.81;99506.84;4997653;28;96849;-77
2024/02/05 13:03:56;;;;;;;16.08;4.15;;;;;;;12.10;65.03;99513.19;4999182;28;96555;-77
2024/02/05 13:10:13;;;;;;;10.38;3.05;;;;;;;12.14;65.82;99504.22;4997304;28;96997;-80
2024/02/05 13:12:39;;;;;;;16.40;3.70;;;;;;;12.16;65.44;99507.63;4965149;28;96580;-77
2024/02/05 13:15:05;;;;;;;14.40;3.72;;;;;;;12.05;64.63;99507.34;4965139;28;96888;-77
2024/02/05 13:17:31;;;;;;;20.05;3.65;;;;;;;11.94;64.12;99500.00;4948675;28;101199;-76
2024/02/05 13:23:46;;;;;;;18.63;3.78;;;;;;;12.03;63.75;99511.81;4998065;28;98381;-77
2024/02/05 13:26:57;;;;;;;18.40;4.32;;;;;;;12.11;63.80;99533.31;4968989;28;96650;-76
2024/02/05 13:29:23;;;;;;;20.02;5.32;;;;;;;12.09;63.68;99519.41;4964516;28;99443;-77
2024/02/05 13:31:48;;;;;;;106.22;26.33;;;;;;;11.99;64.03;99517.25;4983838;28;97643;-77
2024/02/05 13:34:16;;;;;;;107.70;25.17;;;;;;;12.00;63.92;99518.94;4967430;28;96591;-79
2024/02/05 13:36:47;;;;;;;235.52;54.85;;;;;;;12.04;64.25;99531.94;4968903;28;96735;-78
2024/02/05 13:39:13;;;;;;;97.53;21.40;;;;;;;12.02;64.16;99534.66;5002569;28;96801;-76
2024/02/05 13:41:39;;;;;;;20.42;5.93;;;;;;;12.01;64.22;99532.94;4967542;28;101649;-77
2024/02/05 13:44:05;;;;;;;46.20;10.80;;;;;;;11.96;64.03;99529.72;4999142;28;96605;-71
2024/02/05 13:46:31;;;;;;;25.85;5.40;;;;;;;12.00;63.67;99550.50;5000838;28;96738;-80
2024/02/05 13:48:56;;;;;;;22.83;5.25;;;;;;;11.96;63.49;99533.19;5003162;28;97855;-78
2024/02/05 13:51:21;;;;;;;19.77;5.32;;;;;;;12.00;63.23;99553.13;4978739;28;97663;-74
2024/02/05 13:57:35;;;;;;;18.70;4.30;;;;;;;12.00;63.18;99555.75;4994640;28;96700;-74
2024/02/05 14:03:54;;;;;;;21.50;5.57;;;;;;;12.03;63.34;99546.03;4995419;28;96766;-74
2024/02/05 14:10:08;;;;;;;16.77;4.80;;;;;;;11.97;62.75;99548.03;4996661;28;96499;-75
2024/02/05 14:16:29;;;;;;;18.50;6.15;;;;;;;11.92;62.63;99550.03;4997611;28;96993;-75
2024/02/05 14:18:54;;;;;;;20.35;5.03;;;;;;;11.94;62.72;99555.25;4982204;28;96770;-74
2024/02/05 14:21:21;;;;;;;22.60;5.15;;;;;;;11.98;62.85;99549.75;4980511;28;96983;-74
2024/02/05 14:23:47;;;;;;;21.75;5.05;;;;;;;12.00;62.01;99547.88;4995604;28;97555;-73
2024/02/05 14:26:12;;;;;;;20.83;5.15;;;;;;;12.05;62.16;99562.59;4996615;28;97329;-73
2024/02/05 14:28:38;;;;;;;21.42;5.00;;;;;;;12.03;62.05;99554.75;4978287;28;96618;-73
2024/02/05 14:31:03;;;;;;;12.73;4.40;;;;;;;12.08;61.38;99549.28;4996505;28;96912;-74
2024/02/05 14:33:29;;;;;;;13.05;4.03;;;;;;;11.98;61.49;99539.25;4978223;28;97884;-79
2024/02/05 14:35:54;;;;;;;16.85;4.38;;;;;;;11.97;61.54;99542.78;4963981;28;97678;-78
2024/02/05 14:38:20;;;;;;;19.88;4.22;;;;;;;11.95;61.31;99536.75;4963027;28;96576;-79
2024/02/05 14:40:49;;;;;;;13.65;4.55;;;;;;;11.94;61.72;99535.03;4978996;28;96736;-78
2024/02/05 14:43:15;;;;;;;18.98;5.05;;;;;;;11.90;61.32;99537.94;4996086;28;97923;-79
2024/02/05 14:45:41;;;;;;;16.73;4.88;;;;;;;11.95;61.42;99536.75;4962177;28;101021;-78
2024/02/05 14:48:07;;;;;;;18.45;4.85;;;;;;;11.96;62.22;99545.50;4996636;28;96619;-79
2024/02/05 14:50:33;;;;;;;19.17;4.65;;;;;;;11.92;62.00;99550.03;4979400;28;96773;-78
2024/02/05 14:52:58;;;;;;;25.27;5.05;;;;;;;11.87;61.64;99538.06;4996138;28;97720;-75
2024/02/05 14:55:24;;;;;;;17.90;4.90;;;;;;;11.90;62.17;99532.69;4977546;28;97464;-79
2024/02/05 14:57:51;;;;;;;16.02;5.65;;;;;;;11.91;62.06;99539.63;4979839;28;96538;-74
2024/02/05 15:00:17;;;;;;;12.43;4.15;;;;;;;11.85;62.04;99546.03;4944935;28;96896;-75
2024/02/05 15:02:43;;;;;;;21.58;5.47;;;;;;;11.85;61.93;99553.94;4995176;28;97531;-74
2024/02/05 15:05:11;;;;;;;17.98;4.60;;;;;;;11.95;62.07;99564.81;4995096;28;97382;-73
2024/02/05 15:07:37;;;;;;;18.98;5.15;;;;;;;11.94;61.88;99556.09;4977761;28;96530;-74
2024/02/05 15:10:02;;;;;;;15.23;4.30;;;;;;;11.92;61.62;99559.72;4977841;28;96807;-74
2024/02/05 15:12:28;;;;;;;15.65;4.47;;;;;;;11.83;60.85;99539.97;4977202;28;98207;-74
2024/02/05 15:14:53;;;;;;;24.48;6.20;;;;;;;11.90;60.85;99567.72;4977344;28;97447;-75
2024/02/05 15:17:19;;;;;;;19.77;4.97;;;;;;;11.95;61.28;99578.81;4995658;28;96501;-73
2024/02/05 15:19:45;;;;;;;19.45;5.50;;;;;;;11.98;61.33;99562.91;4977830;28;96853;-73
2024/02/05 15:22:12;;;;;;;23.40;5.50;;;;;;;11.95;61.62;99588.50;4975493;28;101300;-75
2024/02/05 15:24:39;;;;;;;16.60;4.88;;;;;;;12.03;61.51;99590.75;4977621;28;97974;-73
2024/02/05 15:27:05;;;;;;;18.50;5.72;;;;;;;12.02;60.95;99579.38;4944479;28;96661;-73
2024/02/05 15:29:31;;;;;;;19.83;5.00;;;;;;;11.98;61.05;99557.66;4960658;28;96857;-73
2024/02/05 15:31:58;;;;;;;16.48;5.53;;;;;;;11.93;61.47;99571.97;4959937;28;100622;-74
2024/02/05 15:34:23;;;;;;;19.73;4.97;;;;;;;11.95;61.01;99570.94;4960694;28;97306;-73
2024/02/05 15:36:49;;;;;;;19.88;5.28;;;;;;;11.86;60.80;99568.78;4994687;28;96533;-73
2024/02/05 15:39:14;;;;;;;25.85;6.38;;;;;;;11.87;61.19;99574.88;4995208;28;96765;-72
2024/02/05 15:41:40;;;;;;;25.73;6.82;;;;;;;11.84;61.09;99588.16;4994408;28;97397;-73
2024/02/05 15:44:06;;;;;;;24.58;5.55;;;;;;;11.91;61.63;99584.34;4994505;28;97832;-75
2024/02/05 15:46:31;;;;;;;24.08;7.10;;;;;;;11.88;61.04;99580.06;4993957;28;96777;-73
2024/02/05 15:48:57;;;;;;;20.67;5.40;;;;;;;11.86;60.64;99584.56;4977072;28;96514;-72
2024/02/05 15:51:22;;;;;;;21.15;4.63;;;;;;;11.83;61.14;99591.72;4976583;28;98106;-73
2024/02/05 15:53:48;;;;;;;21.63;5.18;;;;;;;11.87;60.33;99591.53;4976306;28;97402;-72
2024/02/05 15:56:13;;;;;;;18.30;4.90;;;;;;;11.79;60.88;99591.88;4994638;28;96461;-72
2024/02/05 15:58:39;;;;;;;15.55;4.95;;;;;;;11.83;60.43;99594.34;4994843;28;96761;-72
2024/02/05 16:01:08;;;;;;;19.55;4.82;;;;;;;11.86;60.78;99600.34;4960705;28;101258;-72
2024/02/05 16:03:34;;;;;;;24.25;5.75;;;;;;;11.89;60.38;99605.44;4977214;28;97459;-72
2024/02/05 16:06:03;;;;;;;14.55;4.82;;;;;;;11.90;60.47;99611.56;4977047;28;96574;-73
2024/02/05 16:08:30;;;;;;;19.27;5.93;;;;;;;11.84;60.40;99601.31;4994572;28;96812;-72
2024/02/05 16:10:56;;;;;;;17.75;5.03;;;;;;;11.85;60.75;99603.91;4976419;28;97515;-73
2024/02/05 16:13:22;;;;;;;22.33;5.82;;;;;;;11.84;60.73;99602.19;4994428;28;97401;-72
2024/02/05 16:15:47;;;;;;;19.63;6.28;;;;;;;11.83;60.42;99604.88;4976480;28;96566;-72
2024/02/05 16:18:13;;;;;;;22.95;5.40;;;;;;;11.84;60.59;99596.03;4994428;28;96786;-72
2024/02/05 16:20:39;;;;;;;21.88;5.93;;;;;;;11.87;60.07;99604.69;4994054;28;98124;-72
2024/02/05 16:23:05;;;;;;;27.08;6.10;;;;;;;11.92;60.33;99601.81;4959441;28;97508;-72
2024/02/05 16:25:34;;;;;;;18.45;5.18;;;;;;;11.88;60.32;99603.75;4994672;28;96573;-78
2024/02/05 16:28:01;;;;;;;20.42;5.25;;;;;;;11.81;59.86;99602.34;4983560;28;96777;-79
2024/02/05 16:30:30;;;;;;;22.83;5.30;;;;;;;11.86;60.20;99605.59;4966463;28;100711;-79
2024/02/05 16:32:55;;;;;;;22.45;5.57;;;;;;;11.81;60.27;99591.81;4983813;28;97922;-79
2024/02/05 16:35:21;;;;;;;22.27;5.65;;;;;;;11.82;60.73;99596.13;4967742;28;96916;-79
2024/02/05 16:37:46;;;;;;;23.80;5.55;;;;;;;11.86;59.83;99595.06;4970369;28;96757;-78
2024/02/05 16:40:12;;;;;;;19.58;5.57;;;;;;;11.89;60.17;99607.22;4967829;28;100987;-79
2024/02/05 16:42:38;;;;;;;13.95;5.35;;;;;;;11.95;60.09;99607.75;4985801;28;97313;-78
2024/02/05 16:45:10;;;;;;;18.92;5.57;;;;;;;11.88;59.88;99616.88;5000346;28;96603;-79
2024/02/05 16:51:22;;;;;;;15.73;4.65;;;;;;;11.77;59.97;99619.19;4996334;28;97013;-79
2024/02/05 16:57:40;;;;;;;16.83;6.53;;;;;;;11.77;60.46;99635.78;4995998;28;96592;-78
2024/02/05 17:04:26;;;;;;;18.63;5.25;;;;;;;11.82;60.38;99621.59;4996076;28;96868;-78
2024/02/05 17:06:52;;;;;;;22.60;5.40;;;;;;;11.82;60.51;99611.91;4999734;28;98340;-78
2024/02/05 17:09:17;;;;;;;25.83;5.93;;;;;;;11.91;59.75;99618.53;5001292;28;96541;-79
2024/02/05 17:11:43;;;;;;;19.17;5.03;;;;;;;11.86;60.53;99616.09;4981838;28;96968;-79
2024/02/05 17:14:09;;;;;;;30.55;5.47;;;;;;;11.90;59.84;99614.19;4983147;28;98145;-79
2024/02/05 17:16:41;;;;;;;15.73;5.03;;;;;;;11.89;60.57;99615.09;4982052;28;97867;-79
2024/02/05 17:19:08;;;;;;;23.38;6.25;;;;;;;11.98;59.82;99609.38;4982543;28;96582;-79
2024/02/05 17:21:33;;;;;;;16.95;4.78;;;;;;;11.99;59.94;99611.94;4982287;28;96609;-73
2024/02/05 17:23:59;;;;;;;18.67;4.95;;;;;;;12.14;60.00;99630.50;4996470;28;97553;-73
2024/02/05 17:26:24;;;;;;;12.98;4.55;;;;;;;12.10;59.87;99618.41;4962204;28;100787;-74
2024/02/05 17:28:50;;;;;;;17.65;5.15;;;;;;;12.08;60.12;99625.56;4978470;28;96562;-74
2024/02/05 17:31:16;;;;;;;23.40;5.28;;;;;;;11.99;60.07;99621.63;4962734;28;97047;-73
2024/02/05 17:33:42;;;;;;;15.13;4.93;;;;;;;11.92;60.50;99622.84;4996613;28;97444;-74
2024/02/05 17:36:07;;;;;;;27.65;5.80;;;;;;;11.93;60.55;99624.56;4978708;28;97383;-73
2024/02/05 17:38:33;;;;;;;25.23;5.38;;;;;;;12.03;60.22;99617.03;4961018;28;96618;-74
2024/02/05 17:40:58;;;;;;;21.23;4.95;;;;;;;11.99;60.21;99617.19;4962696;28;96905;-73
2024/02/05 17:43:24;;;;;;;24.17;4.60;;;;;;;12.04;59.71;99619.59;4996458;28;97530;-73
2024/02/05 17:45:49;;;;;;;17.98;5.38;;;;;;;12.00;59.94;99625.94;4978949;28;97606;-73
2024/02/05 17:48:15;;;;;;;18.00;5.43;;;;;;;12.02;59.50;99620.63;4963576;28;96628;-73
2024/02/05 17:50:40;;;;;;;19.63;4.85;;;;;;;12.00;59.01;99624.16;4996761;28;96771;-73
2024/02/05 17:53:06;;;;;;;16.33;4.35;;;;;;;12.02;59.36;99624.09;4996027;28;97480;-73
2024/02/05 17:55:32;;;;;;;20.70;5.20;;;;;;;11.97;59.50;99629.56;4978317;28;97328;-75
2024/02/05 17:57:58;;;;;;;20.35;3.92;;;;;;;11.95;59.45;99628.78;4977774;28;96770;-73
2024/02/05 18:00:24;;;;;;;16.40;4.38;;;;;;;12.04;59.17;99632.72;4978613;28;96762;-73
2024/02/05 18:02:50;;;;;;;11.07;4.10;;;;;;;11.98;59.28;99630.41;4961641;28;100863;-73
2024/02/05 18:05:15;;;;;;;17.77;4.40;;;;;;;12.04;59.33;99632.72;4961877;28;97236;-73
2024/02/05 18:07:41;;;;;;;16.73;5.30;;;;;;;12.02;59.21;99631.97;4961865;28;96617;-74
2024/02/05 18:10:07;;;;;;;16.25;4.75;;;;;;;11.97;58.97;99634.84;4978441;28;96900;-73
2024/02/05 18:12:32;;;;;;;12.57;3.75;;;;;;;11.98;59.39;99646.19;4995783;28;97411;-74
2024/02/05 18:14:58;;;;;;;25.38;4.72;;;;;;;11.96;59.30;99638.41;4977774;28;101219;-73
2024/02/05 18:17:23;;;;;;;18.48;6.43;;;;;;;11.96;58.64;99634.94;4961405;28;96725;-73
2024/02/05 18:19:49;;;;;;;14.80;4.75;;;;;;;12.07;58.96;99640.50;4978328;28;96606;-73
2024/02/05 18:22:14;;;;;;;14.15;3.65;;;;;;;12.05;58.62;99641.50;4961049;28;99205;-73
2024/02/05 18:24:40;;;;;;;21.08;4.20;;;;;;;12.06;58.89;99644.03;4980766;28;97554;-74
2024/02/05 18:27:06;;;;;;;11.93;3.88;;;;;;;12.03;58.98;99640.72;4979140;28;96682;-73
2024/02/05 18:29:31;;;;;;;11.40;4.43;;;;;;;11.99;59.07;99646.13;4996163;28;96839;-73
2024/02/05 18:31:57;;;;;;;14.82;4.95;;;;;;;11.92;58.61;99626.31;4961572;28;97590;-73
2024/02/05 18:34:25;;;;;;;12.20;3.63;;;;;;;11.99;58.67;99645.28;4961559;28;101610;-74
2024/02/05 18:36:51;;;;;;;14.23;4.43;;;;;;;12.00;58.66;99639.94;4995720;28;96545;-72
2024/02/05 18:39:17;;;;;;;17.67;4.38;;;;;;;12.00;58.63;99647.81;4961771;28;96801;-73
2024/02/05 18:41:43;;;;;;;12.05;3.65;;;;;;;12.04;58.76;99634.53;4960877;28;97664;-74
2024/02/05 18:44:08;;;;;;;11.40;3.92;;;;;;;12.00;58.80;99632.03;4961275;28;100614;-73
2024/02/05 18:46:34;;;;;;;18.52;3.95;;;;;;;12.09;59.24;99640.41;4977759;28;96719;-72
2024/02/05 18:49:02;;;;;;;16.38;4.80;;;;;;;12.02;58.81;99631.97;4995331;28;96722;-71
2024/02/05 18:51:28;;;;;;;14.98;3.85;;;;;;;12.03;58.66;99638.94;4977848;28;97868;-72
2024/02/05 18:53:53;;;;;;;19.55;4.60;;;;;;;12.02;59.26;99637.25;4961078;28;102041;-72
2024/02/05 18:56:19;;;;;;;25.15;4.95;;;;;;;12.09;58.77;99633.34;4977952;28;96619;-72
2024/02/05 18:58:44;;;;;;;13.73;4.22;;;;;;;12.04;59.23;99627.47;4995908;28;96761;-72
2024/02/05 19:01:10;;;;;;;15.93;4.00;;;;;;;12.15;59.07;99630.41;4995221;28;97499;-73
2024/02/05 19:03:35;;;;;;;18.38;4.15;;;;;;;12.14;59.45;99626.09;4961222;28;98446;-72
2024/02/05 19:06:01;;;;;;;15.88;4.28;;;;;;;12.05;59.25;99620.47;4960759;28;96593;-71
2024/02/05 19:08:26;;;;;;;13.82;4.40;;;;;;;12.10;58.79;99619.28;4977599;28;96943;-72
2024/02/05 19:10:53;;;;;;;20.20;3.75;;;;;;;12.07;59.07;99621.22;4977009;28;101137;-72
2024/02/05 19:13:18;;;;;;;13.77;3.63;;;;;;;12.18;59.13;99624.13;4977779;28;97225;-72
2024/02/05 19:15:44;;;;;;;22.77;5.70;;;;;;;12.13;58.95;99616.50;4961056;28;96497;-72
2024/02/05 19:18:10;;;;;;;16.83;4.57;;;;;;;12.13;59.12;99627.03;4977814;28;96829;-75
2024/02/05 19:20:36;;;;;;;9.93;3.17;;;;;;;12.16;58.90;99623.38;4978012;28;97417;-72